Time;durP1;ratioP1;P1;durP2;ratioP2;P2;SDS_P1;SDS_P2;PMS_P1;PMS_P2;Temp;Humidity;BMP_temperature;BMP_pressure;BME280_temperature;BME280_humidity;BME280_pressure;Samples;Min_cycle;Max_cycle;Signal;HPM_P1;HPM_P2
2023/06/24 00:01:15;;;;;;;;;;;;;;;;;;5002632;28;20282;-73
2023/06/24 00:04:02;;;;;;;;;;;;;;;;;;5003994;28;19917;-73
2023/06/24 00:06:48;;;;;;;;;;;;;;;;;;4997427;28;19918;-73
2023/06/24 00:09:35;;;;;;;;;;;;;;;;;;5006389;28;19918;-73
2023/06/24 00:12:22;;;;;;;;;;;;;;;;;;5000804;28;19930;-73
2023/06/24 00:15:12;;;;;;;;;;;;;;;;;;5004377;28;19939;-72
2023/06/24 00:18:05;;;;;;;;;;;;;;;;;;5003351;28;19928;-73
2023/06/24 00:20:51;;;;;;;;;;;;;;;;;;5005105;28;19921;-73
2023/06/24 00:23:38;;;;;;;;;;;;;;;;;;5014948;28;19917;-75
2023/06/24 00:26:24;;;;;;;;;;;;;;;;;;4998255;28;19930;-72
2023/06/24 00:29:11;;;;;;;;;;;;;;;;;;5003230;28;19924;-72
2023/06/24 00:31:57;;;;;;;;;;;;;;;;;;4997057;28;19933;-72
2023/06/24 00:34:45;;;;;;;;;;;;;;;;;;5001048;28;20392;-72
2023/06/24 00:37:31;;;;;;;;;;;;;;;;;;5001205;28;19929;-71
2023/06/24 00:40:17;;;;;;;;;;;;;;;;;;4998548;28;20281;-73
2023/06/24 00:43:04;;;;;;;;;;;;;;;;;;5002291;28;20322;-73
2023/06/24 00:45:52;;;;;;;;;;;;;;;;;;5001657;28;19917;-71
2023/06/24 00:48:39;;;;;;;;;;;;;;;;;;4997313;28;19924;-73
2023/06/24 00:51:34;;;;;;;;;;;;;;;;;;4999853;28;20390;-72
2023/06/24 00:54:20;;;;;;;;;;;;;;;;;;4990053;28;19925;-72
2023/06/24 00:57:06;;;;;;;;;;;;;;;;;;4999325;28;19922;-71
2023/06/24 00:59:53;;;;;;;;;;;;;;;;;;5001933;28;19925;-71
2023/06/24 01:02:42;;;;;;;;;;;;;;;;;;5001254;28;20684;-73
2023/06/24 01:05:28;;;;;;;;;;;;;;;;;;5003385;28;19944;-72
2023/06/24 01:08:15;;;;;;;;;;;;;;;;;;5001084;28;19925;-72
2023/06/24 01:11:01;;;;;;;;;;;;;;;;;;5009452;28;19933;-72
2023/06/24 01:13:48;;;;;;;;;;;;;;;;;;5003952;28;19925;-73
2023/06/24 01:16:34;;;;;;;;;;;;;;;;;;5003708;28;19940;-72
2023/06/24 01:19:24;;;;;;;;;;;;;;;;;;5004525;28;19913;-72
2023/06/24 01:22:11;;;;;;;;;;;;;;;;;;5006941;28;19941;-71
2023/06/24 01:24:57;;;;;;;;;;;;;;;;;;5003480;28;19921;-72
2023/06/24 01:27:44;;;;;;;;;;;;;;;;;;5002156;28;19925;-73
2023/06/24 01:30:31;;;;;;;;;;;;;;;;;;4996398;28;20482;-73
2023/06/24 01:33:17;;;;;;;;;;;;;;;;;;5001774;28;20039;-72
2023/06/24 01:36:04;;;;;;;;;;;;;;;;;;4993556;28;19921;-72
2023/06/24 01:38:50;;;;;;;;;;;;;;;;;;4989735;28;19918;-73
2023/06/24 01:41:37;;;;;;;;;;;;;;;;;;5002774;28;19914;-71
2023/06/24 01:44:23;;;;;;;;;;;;;;;;;;5002728;28;19918;-73
2023/06/24 01:47:10;;;;;;;;;;;;;;;;;;5004499;28;19942;-73
2023/06/24 01:49:57;;;;;;;;;;;;;;;;;;5002682;28;19921;-73
2023/06/24 01:52:43;;;;;;;;;;;;;;;;;;5003525;28;19918;-73
2023/06/24 01:55:30;;;;;;;;;;;;;;;;;;5000848;28;19922;-73
2023/06/24 01:58:16;;;;;;;;;;;;;;;;;;5002449;28;19913;-72
2023/06/24 02:01:03;;;;;;;;;;;;;;;;;;4988678;28;19924;-71
2023/06/24 02:03:49;;;;;;;;;;;;;;;;;;4999936;28;19921;-71
2023/06/24 02:06:36;;;;;;;;;;;;;;;;;;5003858;28;19917;-72
2023/06/24 02:09:24;;;;;;;;;;;;;;;;;;4992850;28;20010;-72
2023/06/24 02:12:10;;;;;;;;;;;;;;;;;;4995364;28;19922;-72
2023/06/24 02:14:57;;;;;;;;;;;;;;;;;;5000798;28;19925;-72
2023/06/24 02:17:43;;;;;;;;;;;;;;;;;;5000476;28;19927;-74
2023/06/24 02:20:30;;;;;;;;;;;;;;;;;;4991753;28;20388;-72
2023/06/24 02:23:16;;;;;;;;;;;;;;;;;;5003919;28;19921;-72
2023/06/24 02:26:03;;;;;;;;;;;;;;;;;;4966385;28;19926;-73
2023/06/24 02:28:49;;;;;;;;;;;;;;;;;;4983376;28;19944;-73
2023/06/24 02:31:35;;;;;;;;;;;;;;;;;;4974405;28;19918;-73
2023/06/24 02:34:22;;;;;;;;;;;;;;;;;;4993345;28;19922;-73
2023/06/24 02:37:08;;;;;;;;;;;;;;;;;;4983201;28;19921;-73
2023/06/24 02:39:55;;;;;;;;;;;;;;;;;;4976807;28;19929;-73
2023/06/24 02:42:41;;;;;;;;;;;;;;;;;;4983460;28;20317;-73
2023/06/24 02:45:28;;;;;;;;;;;;;;;;;;4975017;28;20000;-73
2023/06/24 02:48:14;;;;;;;;;;;;;;;;;;4983549;28;19961;-72
2023/06/24 02:51:01;;;;;;;;;;;;;;;;;;4986081;28;20620;-72
2023/06/24 02:53:48;;;;;;;;;;;;;;;;;;4973264;28;19926;-73
2023/06/24 02:56:34;;;;;;;;;;;;;;;;;;4977874;28;19922;-72
2023/06/24 02:59:22;;;;;;;;;;;;;;;;;;4976986;28;19921;-72
2023/06/24 03:02:08;;;;;;;;;;;;;;;;;;4988858;28;19928;-72
2023/06/24 03:04:57;;;;;;;;;;;;;;;;;;4978131;28;19929;-73
2023/06/24 03:07:43;;;;;;;;;;;;;;;;;;4985151;28;19968;-73
2023/06/24 03:10:30;;;;;;;;;;;;;;;;;;4983621;28;20404;-73
2023/06/24 03:13:16;;;;;;;;;;;;;;;;;;4988448;28;20404;-72
2023/06/24 03:16:02;;;;;;;;;;;;;;;;;;4984354;28;19929;-73
2023/06/24 03:18:49;;;;;;;;;;;;;;;;;;4987836;28;19918;-73
2023/06/24 03:21:35;;;;;;;;;;;;;;;;;;4986390;28;20435;-73
2023/06/24 03:24:22;;;;;;;;;;;;;;;;;;4975086;28;20262;-72
2023/06/24 03:27:08;;;;;;;;;;;;;;;;;;5003070;28;19933;-73
2023/06/24 03:29:55;;;;;;;;;;;;;;;;;;4995462;28;20321;-73
2023/06/24 03:32:46;;;;;;;;;;;;;;;;;;4996289;28;19929;-73
2023/06/24 03:35:33;;;;;;;;;;;;;;;;;;5004892;28;19922;-73
2023/06/24 03:38:19;;;;;;;;;;;;;;;;;;5004626;28;19925;-73
2023/06/24 03:41:06;;;;;;;;;;;;;;;;;;5003884;28;19914;-73
2023/06/24 03:43:53;;;;;;;;;;;;;;;;;;4989241;28;19917;-72
2023/06/24 03:46:39;;;;;;;;;;;;;;;;;;5000216;28;19956;-72
2023/06/24 03:49:26;;;;;;;;;;;;;;;;;;4996947;28;19918;-72
2023/06/24 03:52:12;;;;;;;;;;;;;;;;;;5002702;28;19922;-73
2023/06/24 03:54:59;;;;;;;;;;;;;;;;;;5002963;28;20381;-72
2023/06/24 03:57:45;;;;;;;;;;;;;;;;;;5007614;28;19925;-72
2023/06/24 04:00:32;;;;;;;;;;;;;;;;;;4994784;28;19940;-72
2023/06/24 04:03:18;;;;;;;;;;;;;;;;;;5006492;28;20389;-72
2023/06/24 04:06:04;;;;;;;;;;;;;;;;;;5004998;28;19924;-73
2023/06/24 04:08:51;;;;;;;;;;;;;;;;;;5002341;28;19917;-72
2023/06/24 04:11:38;;;;;;;;;;;;;;;;;;4998815;28;20552;-75
2023/06/24 04:14:24;;;;;;;;;;;;;;;;;;4998376;28;19932;-73
2023/06/24 04:17:11;;;;;;;;;;;;;;;;;;4995832;28;20400;-73
2023/06/24 04:19:58;;;;;;;;;;;;;;;;;;4999202;28;19920;-72
2023/06/24 04:22:45;;;;;;;;;;;;;;;;;;5004187;28;19918;-73
2023/06/24 04:25:31;;;;;;;;;;;;;;;;;;5001511;28;19933;-71
2023/06/24 04:28:18;;;;;;;;;;;;;;;;;;5003171;28;19948;-71
2023/06/24 04:31:04;;;;;;;;;;;;;;;;;;4998217;28;19921;-72
2023/06/24 04:33:51;;;;;;;;;;;;;;;;;;4999129;28;19921;-72
2023/06/24 04:36:38;;;;;;;;;;;;;;;;;;5010045;28;19925;-73
2023/06/24 04:39:25;;;;;;;;;;;;;;;;;;5009923;28;20289;-73
2023/06/24 04:42:11;;;;;;;;;;;;;;;;;;5007568;28;19924;-73
2023/06/24 04:44:58;;;;;;;;;;;;;;;;;;5007311;28;22771;-73
2023/06/24 04:47:44;;;;;;;;;;;;;;;;;;5001157;28;20307;-74
2023/06/24 04:50:31;;;;;;;;;;;;;;;;;;5001330;28;19921;-73
2023/06/24 04:53:17;;;;;;;;;;;;;;;;;;5002263;28;19933;-73
2023/06/24 04:56:04;;;;;;;;;;;;;;;;;;5011483;28;19928;-71
2023/06/24 04:58:50;;;;;;;;;;;;;;;;;;5011131;28;20309;-73
2023/06/24 05:01:37;;;;;;;;;;;;;;;;;;5014518;28;19921;-72
2023/06/24 05:04:23;;;;;;;;;;;;;;;;;;5010556;28;19924;-73
2023/06/24 05:07:10;;;;;;;;;;;;;;;;;;5012119;28;19932;-72
2023/06/24 05:09:56;;;;;;;;;;;;;;;;;;4997175;28;19932;-72
2023/06/24 05:12:43;;;;;;;;;;;;;;;;;;5011429;28;20305;-73
2023/06/24 05:15:29;;;;;;;;;;;;;;;;;;5007268;28;19922;-72
2023/06/24 05:18:16;;;;;;;;;;;;;;;;;;5003330;28;19921;-72
2023/06/24 05:21:02;;;;;;;;;;;;;;;;;;5013181;28;20008;-72
2023/06/24 05:23:49;;;;;;;;;;;;;;;;;;4995108;28;19925;-73
2023/06/24 05:26:35;;;;;;;;;;;;;;;;;;5009287;28;19940;-72
2023/06/24 05:29:22;;;;;;;;;;;;;;;;;;5007507;28;19922;-72
2023/06/24 05:32:08;;;;;;;;;;;;;;;;;;5012746;28;19929;-72
2023/06/24 05:34:55;;;;;;;;;;;;;;;;;;5007577;28;19929;-73
2023/06/24 05:37:41;;;;;;;;;;;;;;;;;;5009463;28;19921;-74
2023/06/24 05:40:28;;;;;;;;;;;;;;;;;;5003657;28;19925;-72
2023/06/24 05:43:14;;;;;;;;;;;;;;;;;;5010849;28;19925;-72
2023/06/24 05:46:01;;;;;;;;;;;;;;;;;;4998641;28;20377;-72
2023/06/24 05:48:47;;;;;;;;;;;;;;;;;;5008112;28;19921;-72
2023/06/24 05:51:33;;;;;;;;;;;;;;;;;;5011583;28;19925;-71
2023/06/24 05:54:20;;;;;;;;;;;;;;;;;;5011502;28;19929;-72
2023/06/24 05:57:06;;;;;;;;;;;;;;;;;;4995427;28;19928;-72
2023/06/24 05:59:53;;;;;;;;;;;;;;;;;;5007249;28;19928;-72
2023/06/24 06:02:39;;;;;;;;;;;;;;;;;;5007474;28;19921;-74
2023/06/24 06:05:26;;;;;;;;;;;;;;;;;;5003236;28;19932;-72
2023/06/24 06:08:13;;;;;;;;;;;;;;;;;;5004803;28;19928;-72
2023/06/24 06:11:01;;;;;;;;;;;;;;;;;;5009297;28;19922;-73
2023/06/24 06:13:48;;;;;;;;;;;;;;;;;;5009873;28;21296;-73
2023/06/24 06:16:34;;;;;;;;;;;;;;;;;;5006655;28;20312;-72
2023/06/24 06:19:21;;;;;;;;;;;;;;;;;;5006948;28;20399;-72
2023/06/24 06:22:07;;;;;;;;;;;;;;;;;;5005945;28;20013;-72
2023/06/24 06:24:54;;;;;;;;;;;;;;;;;;4987179;28;19941;-72
2023/06/24 06:27:40;;;;;;;;;;;;;;;;;;5004421;28;19936;-73
2023/06/24 06:30:27;;;;;;;;;;;;;;;;;;5003529;28;19956;-73
2023/06/24 06:33:13;;;;;;;;;;;;;;;;;;5002574;28;19937;-72
2023/06/24 06:36:00;;;;;;;;;;;;;;;;;;5002185;28;19933;-72
2023/06/24 06:38:46;;;;;;;;;;;;;;;;;;5009194;28;19925;-73
2023/06/24 06:41:32;;;;;;;;;;;;;;;;;;5002239;28;19963;-72
2023/06/24 06:44:19;;;;;;;;;;;;;;;;;;5015231;28;19921;-72
2023/06/24 06:47:13;;;;;;;;;;;;;;;;;;5012459;28;19921;-72
2023/06/24 06:49:59;;;;;;;;;;;;;;;;;;5003820;28;19925;-76
2023/06/24 06:52:46;;;;;;;;;;;;;;;;;;5000905;28;19929;-75
2023/06/24 06:55:32;;;;;;;;;;;;;;;;;;5012043;28;19929;-74
2023/06/24 06:58:19;;;;;;;;;;;;;;;;;;4998584;28;19927;-75
2023/06/24 07:01:05;;;;;;;;;;;;;;;;;;4996051;28;20001;-74
2023/06/24 07:03:52;;;;;;;;;;;;;;;;;;5001347;28;19964;-74
2023/06/24 07:06:39;;;;;;;;;;;;;;;;;;4992386;28;19917;-74
2023/06/24 07:09:25;;;;;;;;;;;;;;;;;;4996474;28;19929;-76
2023/06/24 07:12:13;;;;;;;;;;;;;;;;;;5014902;28;20289;-75
2023/06/24 07:14:59;;;;;;;;;;;;;;;;;;5007915;28;19937;-76
2023/06/24 07:17:46;;;;;;;;;;;;;;;;;;5010882;28;19933;-76
2023/06/24 07:20:32;;;;;;;;;;;;;;;;;;5009914;28;20579;-77
2023/06/24 07:23:19;;;;;;;;;;;;;;;;;;5014672;28;19928;-76
2023/06/24 07:26:05;;;;;;;;;;;;;;;;;;4994850;28;19929;-76
2023/06/24 07:28:53;;;;;;;;;;;;;;;;;;5002429;28;20568;-77
2023/06/24 07:31:39;;;;;;;;;;;;;;;;;;5006903;28;19921;-77
2023/06/24 07:34:26;;;;;;;;;;;;;;;;;;5013529;28;19931;-75
2023/06/24 07:37:12;;;;;;;;;;;;;;;;;;5012599;28;19928;-76
2023/06/24 07:39:59;;;;;;;;;;;;;;;;;;5001665;28;21348;-76
2023/06/24 07:42:45;;;;;;;;;;;;;;;;;;4995753;28;20296;-76
2023/06/24 07:45:32;;;;;;;;;;;;;;;;;;5009929;28;19924;-77
2023/06/24 07:48:18;;;;;;;;;;;;;;;;;;5011902;28;19920;-76
2023/06/24 07:51:05;;;;;;;;;;;;;;;;;;4976254;28;19928;-77
2023/06/24 07:53:51;;;;;;;;;;;;;;;;;;5001272;28;20587;-77
2023/06/24 07:56:38;;;;;;;;;;;;;;;;;;5011460;28;19922;-76
2023/06/24 07:59:24;;;;;;;;;;;;;;;;;;5008181;28;19921;-75
2023/06/24 08:02:11;;;;;;;;;;;;;;;;;;5003219;28;20361;-78
2023/06/24 08:04:57;;;;;;;;;;;;;;;;;;5004006;28;19921;-77
2023/06/24 08:07:44;;;;;;;;;;;;;;;;;;4993629;28;20428;-77
2023/06/24 08:10:30;;;;;;;;;;;;;;;;;;5002872;28;20345;-77
2023/06/24 08:13:17;;;;;;;;;;;;;;;;;;5008207;28;19934;-77
2023/06/24 08:16:03;;;;;;;;;;;;;;;;;;4999626;28;19914;-76
2023/06/24 08:18:50;;;;;;;;;;;;;;;;;;5000075;28;19925;-77
2023/06/24 08:21:37;;;;;;;;;;;;;;;;;;4996528;28;19921;-77
2023/06/24 08:24:24;;;;;;;;;;;;;;;;;;5010987;28;19924;-76
2023/06/24 08:27:10;;;;;;;;;;;;;;;;;;4990246;28;19929;-76
2023/06/24 08:29:57;;;;;;;;;;;;;;;;;;4996283;28;20404;-76
2023/06/24 08:32:43;;;;;;;;;;;;;;;;;;4997822;28;19922;-77
2023/06/24 08:35:30;;;;;;;;;;;;;;;;;;5003573;28;19926;-77
2023/06/24 08:38:16;;;;;;;;;;;;;;;;;;5000355;28;19926;-77
2023/06/24 08:41:03;;;;;;;;;;;;;;;;;;5000219;28;19929;-77
2023/06/24 08:43:49;;;;;;;;;;;;;;;;;;4996315;28;20903;-77
2023/06/24 08:46:36;;;;;;;;;;;;;;;;;;4991186;28;19966;-77
2023/06/24 08:49:22;;;;;;;;;;;;;;;;;;4999243;28;19928;-77
2023/06/24 08:52:09;;;;;;;;;;;;;;;;;;4996659;28;19956;-77
2023/06/24 08:54:55;;;;;;;;;;;;;;;;;;5005904;28;20586;-76
2023/06/24 08:57:42;;;;;;;;;;;;;;;;;;4995631;28;19924;-75
2023/06/24 09:00:28;;;;;;;;;;;;;;;;;;4998346;28;19956;-75
2023/06/24 09:03:15;;;;;;;;;;;;;;;;;;4998888;28;19922;-77
2023/06/24 09:06:01;;;;;;;;;;;;;;;;;;4995853;28;20262;-76
2023/06/24 09:08:47;;;;;;;;;;;;;;;;;;4998630;28;19921;-76
2023/06/24 09:11:34;;;;;;;;;;;;;;;;;;5000097;28;19917;-76
2023/06/24 09:14:20;;;;;;;;;;;;;;;;;;5001130;28;19932;-76
2023/06/24 09:17:09;;;;;;;;;;;;;;;;;;5008813;28;19929;-76
2023/06/24 09:19:56;;;;;;;;;;;;;;;;;;4999354;28;19936;-76
2023/06/24 09:22:42;;;;;;;;;;;;;;;;;;5000203;28;19925;-74
2023/06/24 09:25:29;;;;;;;;;;;;;;;;;;5006829;28;19929;-74
2023/06/24 09:28:15;;;;;;;;;;;;;;;;;;5006070;28;20481;-75
2023/06/24 09:31:02;;;;;;;;;;;;;;;;;;5005360;28;19928;-75
2023/06/24 09:33:49;;;;;;;;;;;;;;;;;;5005689;28;19937;-74
2023/06/24 09:36:35;;;;;;;;;;;;;;;;;;5002442;28;19960;-75
2023/06/24 09:39:22;;;;;;;;;;;;;;;;;;5006874;28;20420;-75
2023/06/24 09:42:08;;;;;;;;;;;;;;;;;;4998765;28;19917;-77
2023/06/24 09:44:55;;;;;;;;;;;;;;;;;;5002024;28;19918;-75
2023/06/24 09:47:42;;;;;;;;;;;;;;;;;;4988826;28;19921;-75
2023/06/24 09:50:30;;;;;;;;;;;;;;;;;;4998902;28;19951;-75
2023/06/24 09:53:16;;;;;;;;;;;;;;;;;;4995306;28;19930;-74
2023/06/24 09:56:03;;;;;;;;;;;;;;;;;;5006217;28;19936;-76
2023/06/24 09:58:49;;;;;;;;;;;;;;;;;;4998125;28;19922;-72
2023/06/24 10:01:36;;;;;;;;;;;;;;;;;;5002202;28;19918;-75
2023/06/24 10:04:23;;;;;;;;;;;;;;;;;;5002894;28;19924;-72
2023/06/24 10:07:09;;;;;;;;;;;;;;;;;;5002784;28;19922;-73
2023/06/24 10:09:55;;;;;;;;;;;;;;;;;;4986455;28;19918;-73
2023/06/24 10:12:42;;;;;;;;;;;;;;;;;;4991934;28;19922;-74
2023/06/24 10:15:28;;;;;;;;;;;;;;;;;;4997685;28;19929;-75
2023/06/24 10:18:15;;;;;;;;;;;;;;;;;;5000947;28;19922;-74
2023/06/24 10:21:02;;;;;;;;;;;;;;;;;;5006338;28;19917;-73
2023/06/24 10:23:49;;;;;;;;;;;;;;;;;;5003744;28;19944;-74
2023/06/24 10:26:35;;;;;;;;;;;;;;;;;;5003223;28;20297;-74
2023/06/24 10:29:22;;;;;;;;;;;;;;;;;;5002906;28;19918;-74
2023/06/24 10:32:09;;;;;;;;;;;;;;;;;;5005021;28;19921;-73
2023/06/24 10:34:56;;;;;;;;;;;;;;;;;;4994619;28;19925;-74
2023/06/24 10:37:42;;;;;;;;;;;;;;;;;;5006034;28;19917;-74
2023/06/24 10:40:29;;;;;;;;;;;;;;;;;;5009381;28;20518;-73
2023/06/24 10:43:15;;;;;;;;;;;;;;;;;;5008342;28;20292;-73
2023/06/24 10:46:02;;;;;;;;;;;;;;;;;;4984375;28;19928;-73
2023/06/24 10:48:48;;;;;;;;;;;;;;;;;;5006807;28;19929;-72
2023/06/24 10:51:35;;;;;;;;;;;;;;;;;;5002455;28;20436;-73
2023/06/24 10:54:21;;;;;;;;;;;;;;;;;;4995462;28;19929;-73
2023/06/24 10:57:08;;;;;;;;;;;;;;;;;;5004827;28;19923;-73
2023/06/24 10:59:54;;;;;;;;;;;;;;;;;;5004740;28;19929;-73
2023/06/24 11:02:41;;;;;;;;;;;;;;;;;;5011774;28;19921;-74
2023/06/24 11:05:27;;;;;;;;;;;;;;;;;;5007475;28;19917;-73
2023/06/24 11:08:14;;;;;;;;;;;;;;;;;;5000431;28;20644;-72
2023/06/24 11:11:02;;;;;;;;;;;;;;;;;;4993564;28;19922;-72
2023/06/24 11:13:49;;;;;;;;;;;;;;;;;;4986023;28;19930;-74
2023/06/24 11:16:38;;;;;;;;;;;;;;;;;;5007898;28;20373;-73
2023/06/24 11:19:25;;;;;;;;;;;;;;;;;;4999567;28;19921;-71
2023/06/24 11:22:11;;;;;;;;;;;;;;;;;;5004427;28;19925;-72
2023/06/24 11:24:58;;;;;;;;;;;;;;;;;;5003989;28;19918;-72
2023/06/24 11:27:44;;;;;;;;;;;;;;;;;;5006718;28;20301;-73
2023/06/24 11:30:31;;;;;;;;;;;;;;;;;;5012905;28;20670;-72
2023/06/24 11:33:17;;;;;;;;;;;;;;;;;;5013906;28;19933;-73
2023/06/24 11:36:04;;;;;;;;;;;;;;;;;;5006382;28;19921;-72
2023/06/24 11:38:50;;;;;;;;;;;;;;;;;;4987648;28;19925;-72
2023/06/24 11:41:37;;;;;;;;;;;;;;;;;;5008479;28;19929;-71
2023/06/24 11:44:24;;;;;;;;;;;;;;;;;;4997222;28;19921;-74
2023/06/24 11:47:10;;;;;;;;;;;;;;;;;;5001956;28;20620;-72
2023/06/24 11:50:02;;;;;;;;;;;;;;;;;;5011160;28;19932;-72
2023/06/24 11:52:48;;;;;;;;;;;;;;;;;;5005054;28;20293;-72
2023/06/24 11:55:35;;;;;;;;;;;;;;;;;;4998761;28;19964;-71
2023/06/24 11:58:21;;;;;;;;;;;;;;;;;;4996476;28;20455;-72
2023/06/24 12:01:08;;;;;;;;;;;;;;;;;;5008036;28;19922;-71
2023/06/24 12:03:54;;;;;;;;;;;;;;;;;;5013187;28;19921;-72
2023/06/24 12:06:41;;;;;;;;;;;;;;;;;;5012416;28;19920;-72
2023/06/24 12:09:28;;;;;;;;;;;;;;;;;;5008520;28;20339;-71
2023/06/24 12:12:14;;;;;;;;;;;;;;;;;;5007604;28;19925;-73
2023/06/24 12:15:01;;;;;;;;;;;;;;;;;;5006874;28;19932;-73
2023/06/24 12:17:47;;;;;;;;;;;;;;;;;;4996267;28;19932;-73
2023/06/24 12:20:36;;;;;;;;;;;;;;;;;;5000485;28;19918;-73
2023/06/24 12:23:22;;;;;;;;;;;;;;;;;;5009588;28;19914;-73
2023/06/24 12:26:09;;;;;;;;;;;;;;;;;;4998266;28;19932;-73
2023/06/24 12:28:56;;;;;;;;;;;;;;;;;;5008354;28;19917;-70
2023/06/24 12:31:42;;;;;;;;;;;;;;;;;;5008002;28;19922;-71
2023/06/24 12:34:29;;;;;;;;;;;;;;;;;;5007724;28;19929;-70
2023/06/24 12:37:15;;;;;;;;;;;;;;;;;;5008273;28;20251;-70
2023/06/24 12:40:02;;;;;;;;;;;;;;;;;;4994215;28;19914;-71
2023/06/24 12:42:48;;;;;;;;;;;;;;;;;;5008385;28;19925;-72
2023/06/24 12:45:35;;;;;;;;;;;;;;;;;;5006835;28;20305;-72
2023/06/24 12:48:21;;;;;;;;;;;;;;;;;;5008835;28;19921;-72
2023/06/24 12:51:08;;;;;;;;;;;;;;;;;;4999927;28;19924;-71
2023/06/24 12:53:54;;;;;;;;;;;;;;;;;;4991082;28;20270;-72
2023/06/24 12:56:41;;;;;;;;;;;;;;;;;;5010587;28;19928;-72
2023/06/24 12:59:27;;;;;;;;;;;;;;;;;;5008430;28;19925;-73
2023/06/24 13:02:14;;;;;;;;;;;;;;;;;;5007531;28;20482;-72
2023/06/24 13:05:00;;;;;;;;;;;;;;;;;;5002950;28;19933;-72
2023/06/24 13:07:47;;;;;;;;;;;;;;;;;;5006729;28;19928;-73
2023/06/24 13:10:33;;;;;;;;;;;;;;;;;;5006689;28;19922;-74
2023/06/24 13:13:20;;;;;;;;;;;;;;;;;;5008247;28;20252;-71
2023/06/24 13:16:06;;;;;;;;;;;;;;;;;;5011813;28;20587;-72
2023/06/24 13:18:53;;;;;;;;;;;;;;;;;;5006343;28;19921;-72
2023/06/24 13:21:40;;;;;;;;;;;;;;;;;;5008146;28;19921;-72
2023/06/24 13:24:27;;;;;;;;;;;;;;;;;;4994644;28;19921;-71
2023/06/24 13:27:13;;;;;;;;;;;;;;;;;;5009394;28;19929;-72
2023/06/24 13:30:00;;;;;;;;;;;;;;;;;;4997001;28;20333;-71
2023/06/24 13:32:46;;;;;;;;;;;;;;;;;;4990968;28;19929;-71
2023/06/24 13:35:33;;;;;;;;;;;;;;;;;;5007390;28;19937;-72
2023/06/24 13:38:20;;;;;;;;;;;;;;;;;;5002393;28;19922;-72
2023/06/24 13:41:06;;;;;;;;;;;;;;;;;;5001618;28;20411;-73
2023/06/24 13:43:53;;;;;;;;;;;;;;;;;;5006874;28;19917;-72
2023/06/24 13:46:40;;;;;;;;;;;;;;;;;;4997242;28;19921;-76
2023/06/24 13:49:26;;;;;;;;;;;;;;;;;;5008581;28;19916;-71
2023/06/24 13:52:12;;;;;;;;;;;;;;;;;;5006084;28;19940;-72
2023/06/24 13:54:59;;;;;;;;;;;;;;;;;;5004132;28;20583;-73
2023/06/24 13:57:45;;;;;;;;;;;;;;;;;;5007344;28;19929;-72
2023/06/24 14:00:32;;;;;;;;;;;;;;;;;;5014045;28;19968;-71
2023/06/24 14:03:18;;;;;;;;;;;;;;;;;;5008108;28;19957;-72
2023/06/24 14:06:05;;;;;;;;;;;;;;;;;;5000689;28;19933;-72
2023/06/24 14:08:51;;;;;;;;;;;;;;;;;;4990155;28;19918;-70
2023/06/24 14:11:38;;;;;;;;;;;;;;;;;;4992027;28;19928;-72
2023/06/24 14:14:24;;;;;;;;;;;;;;;;;;5000985;28;20403;-73
2023/06/24 14:17:12;;;;;;;;;;;;;;;;;;5001996;28;19917;-71
2023/06/24 14:19:58;;;;;;;;;;;;;;;;;;5001073;28;19933;-71
2023/06/24 14:22:45;;;;;;;;;;;;;;;;;;5001093;28;19922;-71
2023/06/24 14:25:31;;;;;;;;;;;;;;;;;;4996412;28;19934;-75
2023/06/24 14:28:18;;;;;;;;;;;;;;;;;;4997640;28;19925;-75
2023/06/24 14:31:04;;;;;;;;;;;;;;;;;;4997196;28;19928;-75
2023/06/24 14:33:51;;;;;;;;;;;;;;;;;;5003039;28;20301;-75
2023/06/24 14:36:37;;;;;;;;;;;;;;;;;;5007073;28;19925;-76
2023/06/24 14:39:24;;;;;;;;;;;;;;;;;;4992493;28;19913;-73
2023/06/24 14:42:10;;;;;;;;;;;;;;;;;;4998393;28;19921;-75
2023/06/24 14:44:57;;;;;;;;;;;;;;;;;;4990836;28;19925;-75
2023/06/24 14:47:44;;;;;;;;;;;;;;;;;;4991579;28;19918;-76
2023/06/24 14:50:30;;;;;;;;;;;;;;;;;;5002986;28;19917;-73
2023/06/24 14:53:17;;;;;;;;;;;;;;;;;;4993354;28;20436;-74
2023/06/24 14:56:03;;;;;;;;;;;;;;;;;;4989131;28;19940;-74
2023/06/24 14:58:50;;;;;;;;;;;;;;;;;;4993921;28;19929;-74
2023/06/24 15:01:36;;;;;;;;;;;;;;;;;;4987605;28;20277;-73
2023/06/24 15:04:23;;;;;;;;;;;;;;;;;;5001994;28;19918;-74
2023/06/24 15:07:09;;;;;;;;;;;;;;;;;;4997513;28;19921;-74
2023/06/24 15:09:56;;;;;;;;;;;;;;;;;;5001171;28;19924;-74
2023/06/24 15:12:42;;;;;;;;;;;;;;;;;;5006435;28;19927;-75
2023/06/24 15:15:29;;;;;;;;;;;;;;;;;;5006836;28;19934;-74
2023/06/24 15:18:15;;;;;;;;;;;;;;;;;;5000060;28;19929;-75
2023/06/24 15:21:02;;;;;;;;;;;;;;;;;;5011969;28;19917;-75
2023/06/24 15:23:48;;;;;;;;;;;;;;;;;;5007191;28;19922;-71
2023/06/24 15:26:35;;;;;;;;;;;;;;;;;;4999248;28;20304;-72
2023/06/24 15:29:21;;;;;;;;;;;;;;;;;;5001426;28;19928;-72
2023/06/24 15:32:08;;;;;;;;;;;;;;;;;;4994785;28;19914;-73
2023/06/24 15:34:54;;;;;;;;;;;;;;;;;;5001052;28;19925;-73
2023/06/24 15:37:41;;;;;;;;;;;;;;;;;;4995005;28;19928;-73
2023/06/24 15:40:27;;;;;;;;;;;;;;;;;;5011431;28;19922;-73
2023/06/24 15:43:14;;;;;;;;;;;;;;;;;;4995193;28;19925;-73
2023/06/24 15:46:00;;;;;;;;;;;;;;;;;;5005071;28;19921;-73
2023/06/24 15:48:47;;;;;;;;;;;;;;;;;;4999485;28;19918;-72
2023/06/24 15:51:33;;;;;;;;;;;;;;;;;;4999375;28;19914;-71
2023/06/24 15:54:19;;;;;;;;;;;;;;;;;;5007768;28;19953;-71
2023/06/24 15:57:06;;;;;;;;;;;;;;;;;;4995174;28;19917;-72
2023/06/24 15:59:52;;;;;;;;;;;;;;;;;;5003670;28;19918;-72
2023/06/24 16:02:39;;;;;;;;;;;;;;;;;;5000473;28;19928;-72
2023/06/24 16:05:25;;;;;;;;;;;;;;;;;;5003457;28;19917;-72
2023/06/24 16:08:12;;;;;;;;;;;;;;;;;;5004140;28;19917;-72
2023/06/24 16:11:00;;;;;;;;;;;;;;;;;;5012324;28;20292;-72
2023/06/24 16:13:47;;;;;;;;;;;;;;;;;;5006928;28;19928;-73
2023/06/24 16:16:33;;;;;;;;;;;;;;;;;;5005803;28;19930;-72
2023/06/24 16:19:20;;;;;;;;;;;;;;;;;;5007557;28;19928;-72
2023/06/24 16:22:06;;;;;;;;;;;;;;;;;;5005215;28;19929;-72
2023/06/24 16:24:53;;;;;;;;;;;;;;;;;;4988634;28;20570;-73
2023/06/24 16:27:39;;;;;;;;;;;;;;;;;;4995506;28;19925;-72
2023/06/24 16:30:28;;;;;;;;;;;;;;;;;;5006956;28;25767;-72
2023/06/24 16:33:14;;;;;;;;;;;;;;;;;;4999199;28;19921;-72
2023/06/24 16:36:01;;;;;;;;;;;;;;;;;;5009064;28;19933;-73
2023/06/24 16:38:47;;;;;;;;;;;;;;;;;;5005737;28;20385;-73
2023/06/24 16:41:34;;;;;;;;;;;;;;;;;;5006629;28;19941;-72
2023/06/24 16:44:20;;;;;;;;;;;;;;;;;;5016470;28;20372;-72
2023/06/24 16:47:07;;;;;;;;;;;;;;;;;;5001539;28;19913;-73
2023/06/24 16:49:55;;;;;;;;;;;;;;;;;;5003768;28;20429;-73
2023/06/24 16:52:41;;;;;;;;;;;;;;;;;;5005596;28;20277;-73
2023/06/24 16:55:28;;;;;;;;;;;;;;;;;;5005778;28;19925;-72
2023/06/24 16:58:14;;;;;;;;;;;;;;;;;;4987061;28;19925;-73
2023/06/24 17:01:01;;;;;;;;;;;;;;;;;;4999506;28;19913;-72
2023/06/24 17:03:47;;;;;;;;;;;;;;;;;;4994850;28;19952;-73
2023/06/24 17:06:34;;;;;;;;;;;;;;;;;;5001075;28;20289;-72
2023/06/24 17:09:20;;;;;;;;;;;;;;;;;;5000179;28;19928;-72
2023/06/24 17:12:07;;;;;;;;;;;;;;;;;;4996021;28;19926;-72
2023/06/24 17:14:53;;;;;;;;;;;;;;;;;;5000849;28;19925;-73
2023/06/24 17:17:40;;;;;;;;;;;;;;;;;;5003115;28;20396;-72
2023/06/24 17:20:26;;;;;;;;;;;;;;;;;;5000163;28;19918;-71
2023/06/24 17:23:13;;;;;;;;;;;;;;;;;;5000670;28;19914;-72
2023/06/24 17:26:00;;;;;;;;;;;;;;;;;;4995424;28;19934;-72
2023/06/24 17:28:46;;;;;;;;;;;;;;;;;;4981657;28;20398;-73
2023/06/24 17:31:33;;;;;;;;;;;;;;;;;;4987719;28;19925;-73
2023/06/24 17:34:19;;;;;;;;;;;;;;;;;;4984492;28;19949;-72
2023/06/24 17:37:06;;;;;;;;;;;;;;;;;;4981043;28;19949;-73
2023/06/24 17:39:52;;;;;;;;;;;;;;;;;;4987535;28;19917;-72
2023/06/24 17:42:39;;;;;;;;;;;;;;;;;;4988098;28;19922;-72
2023/06/24 17:45:25;;;;;;;;;;;;;;;;;;4980594;28;19922;-73
2023/06/24 17:48:11;;;;;;;;;;;;;;;;;;4979720;28;19922;-72
2023/06/24 17:50:58;;;;;;;;;;;;;;;;;;4986231;28;19914;-72
2023/06/24 17:53:44;;;;;;;;;;;;;;;;;;4984549;28;20359;-72
2023/06/24 17:56:31;;;;;;;;;;;;;;;;;;4969363;28;19926;-72
2023/06/24 17:59:17;;;;;;;;;;;;;;;;;;4985962;28;19929;-72
2023/06/24 18:02:04;;;;;;;;;;;;;;;;;;4981702;28;20500;-72
2023/06/24 18:04:50;;;;;;;;;;;;;;;;;;4972994;28;19924;-73
2023/06/24 18:07:37;;;;;;;;;;;;;;;;;;4978321;28;19914;-71
2023/06/24 18:10:23;;;;;;;;;;;;;;;;;;4972755;28;19921;-72
2023/06/24 18:13:10;;;;;;;;;;;;;;;;;;4987435;28;19921;-75
2023/06/24 18:15:56;;;;;;;;;;;;;;;;;;4990274;28;19936;-75
2023/06/24 18:18:43;;;;;;;;;;;;;;;;;;4986170;28;19949;-74
2023/06/24 18:21:29;;;;;;;;;;;;;;;;;;4984673;28;19922;-75
2023/06/24 18:24:16;;;;;;;;;;;;;;;;;;4983354;28;20404;-75
2023/06/24 18:27:02;;;;;;;;;;;;;;;;;;4973325;28;19930;-73
2023/06/24 18:29:49;;;;;;;;;;;;;;;;;;4969991;28;20390;-74
2023/06/24 18:32:35;;;;;;;;;;;;;;;;;;4976223;28;19918;-73
2023/06/24 18:35:22;;;;;;;;;;;;;;;;;;4976649;28;19929;-74
2023/06/24 18:38:08;;;;;;;;;;;;;;;;;;4973961;28;19995;-75
2023/06/24 18:40:55;;;;;;;;;;;;;;;;;;4970963;28;19917;-74
2023/06/24 18:43:41;;;;;;;;;;;;;;;;;;4975443;28;20396;-76
2023/06/24 18:46:28;;;;;;;;;;;;;;;;;;4983463;28;19921;-76
2023/06/24 18:49:15;;;;;;;;;;;;;;;;;;4987254;28;20026;-73
2023/06/24 18:52:01;;;;;;;;;;;;;;;;;;4976003;28;19916;-73
2023/06/24 18:54:48;;;;;;;;;;;;;;;;;;4979117;28;19947;-73
2023/06/24 18:57:34;;;;;;;;;;;;;;;;;;4977328;28;19937;-76